createdAt,value
2018-06-21T00:00:57.218Z,0.00
2018-06-21T00:01:57.159Z,0.00
2018-06-21T00:02:57.108Z,0.00
2018-06-21T00:03:57.057Z,0.00
2018-06-21T00:04:56.993Z,0.00
2018-06-21T00:05:56.931Z,0.00
2018-06-21T00:06:56.850Z,0.00
2018-06-21T00:07:56.802Z,0.00
2018-06-21T00:08:56.741Z,0.00
2018-06-21T00:09:56.682Z,0.00
2018-06-21T00:10:56.616Z,0.00
2018-06-21T00:11:56.553Z,0.00
2018-06-21T00:12:56.501Z,0.00
2018-06-21T00:13:56.435Z,0.00
2018-06-21T00:14:56.372Z,0.00
2018-06-21T00:15:56.304Z,0.00
2018-06-21T00:16:56.299Z,0.00
2018-06-21T00:17:56.194Z,0.00
2018-06-21T00:18:56.131Z,0.00
2018-06-21T00:19:56.058Z,0.00
2018-06-21T00:20:56.003Z,0.00
2018-06-21T00:21:55.936Z,0.00
2018-06-21T00:22:55.880Z,0.00
2018-06-21T00:23:55.823Z,0.00
2018-06-21T00:24:55.753Z,0.00
2018-06-21T00:25:55.696Z,0.00
2018-06-21T00:26:55.630Z,0.00
2018-06-21T00:27:55.570Z,0.00
2018-06-21T00:28:55.514Z,0.00
2018-06-21T00:29:55.456Z,0.00
2018-06-21T00:30:55.380Z,0.00
2018-06-21T00:31:55.334Z,0.00
2018-06-21T00:32:55.265Z,0.00
2018-06-21T00:33:55.204Z,0.00
2018-06-21T00:34:55.137Z,0.00
2018-06-21T00:35:55.073Z,0.00
2018-06-21T00:36:55.024Z,0.00
2018-06-21T00:37:54.966Z,0.00
2018-06-21T00:38:54.899Z,0.00
2018-06-21T00:39:54.828Z,0.00
2018-06-21T00:40:54.779Z,0.00
2018-06-21T00:41:54.706Z,0.00
2018-06-21T00:42:54.663Z,0.00
2018-06-21T00:43:54.592Z,0.00
2018-06-21T00:44:54.533Z,0.00
2018-06-21T00:45:54.467Z,0.00
2018-06-21T00:46:54.407Z,0.00
2018-06-21T00:47:54.344Z,0.00
2018-06-21T00:48:54.277Z,0.00
2018-06-21T00:49:54.215Z,0.00
2018-06-21T00:50:54.160Z,0.00
2018-06-21T00:51:54.092Z,0.00
2018-06-21T00:52:54.042Z,0.00
2018-06-21T00:53:53.983Z,0.00
2018-06-21T00:54:53.927Z,0.00
2018-06-21T00:55:53.844Z,0.00
2018-06-21T00:56:53.796Z,0.00
2018-06-21T00:57:53.730Z,0.00
2018-06-21T00:58:53.658Z,0.00
2018-06-21T00:59:53.618Z,0.00
2018-06-21T01:00:53.542Z,0.00
2018-06-21T01:01:53.485Z,0.00
2018-06-21T01:02:53.419Z,0.00
2018-06-21T01:03:53.356Z,0.00
2018-06-21T01:04:53.286Z,0.00
2018-06-21T01:05:53.242Z,0.00
2018-06-21T01:06:53.167Z,0.00
2018-06-21T01:07:53.114Z,0.00
2018-06-21T01:08:53.045Z,0.00
2018-06-21T01:09:52.981Z,0.00
2018-06-21T01:10:52.915Z,0.00
2018-06-21T01:11:52.873Z,0.00
2018-06-21T01:12:52.803Z,0.00
2018-06-21T01:13:52.735Z,0.00
2018-06-21T01:14:52.678Z,0.00
2018-06-21T01:15:52.621Z,0.00
2018-06-21T01:16:52.555Z,0.00
2018-06-21T01:17:52.485Z,0.00
2018-06-21T01:18:52.431Z,0.00
2018-06-21T01:19:52.381Z,0.00
2018-06-21T01:20:52.400Z,0.00
2018-06-21T01:21:52.251Z,0.00
2018-06-21T01:22:52.178Z,0.00
2018-06-21T01:23:52.133Z,0.00
2018-06-21T01:24:52.060Z,0.00
2018-06-21T01:25:52.003Z,0.00
2018-06-21T01:26:51.937Z,0.00
2018-06-21T01:27:51.883Z,0.00
2018-06-21T01:28:51.815Z,0.00
2018-06-21T01:29:51.752Z,0.00
2018-06-21T01:30:51.694Z,0.00
2018-06-21T01:31:51.640Z,0.00
2018-06-21T01:32:51.583Z,0.00
2018-06-21T01:33:51.534Z,0.00
2018-06-21T01:34:51.453Z,0.00
2018-06-21T01:35:51.395Z,0.00
2018-06-21T01:36:51.322Z,0.00
2018-06-21T01:37:51.269Z,0.00
2018-06-21T01:38:51.193Z,0.00
2018-06-21T01:39:51.136Z,0.00
2018-06-21T01:40:51.086Z,0.00
2018-06-21T01:41:51.022Z,0.00
2018-06-21T01:42:50.961Z,0.00
2018-06-21T01:43:50.892Z,0.00
2018-06-21T01:44:50.839Z,0.00
2018-06-21T01:45:50.772Z,0.00
2018-06-21T01:46:50.727Z,0.00
2018-06-21T01:47:50.666Z,0.00
2018-06-21T01:48:50.590Z,0.00
2018-06-21T01:49:50.531Z,0.00
2018-06-21T01:50:50.465Z,0.00
2018-06-21T01:51:50.407Z,0.00
2018-06-21T01:52:50.337Z,0.00
2018-06-21T01:53:50.290Z,0.00
2018-06-21T01:54:50.225Z,0.00
2018-06-21T01:55:50.163Z,0.00
2018-06-21T01:56:50.107Z,0.00
2018-06-21T01:57:50.034Z,0.00
2018-06-21T01:58:49.984Z,0.00
2018-06-21T01:59:49.911Z,0.00
2018-06-21T02:00:49.848Z,0.00
2018-06-21T02:01:49.792Z,0.00
2018-06-21T02:02:49.741Z,0.00
2018-06-21T02:03:49.671Z,0.00
2018-06-21T02:04:49.620Z,0.00
2018-06-21T02:05:49.559Z,0.00
2018-06-21T02:06:49.496Z,0.00
2018-06-21T02:07:49.423Z,0.00
2018-06-21T02:08:49.361Z,0.00
2018-06-21T02:09:49.316Z,0.00
2018-06-21T02:10:49.251Z,0.00
2018-06-21T02:11:49.182Z,0.00
2018-06-21T02:12:49.127Z,0.00
2018-06-21T02:13:49.051Z,0.00
2018-06-21T02:14:49.012Z,0.00
2018-06-21T02:15:48.937Z,0.00
2018-06-21T02:16:48.881Z,0.00
2018-06-21T02:17:48.825Z,0.00
2018-06-21T02:18:48.758Z,0.00
2018-06-21T02:19:48.699Z,0.00
2018-06-21T02:20:48.627Z,0.00
2018-06-21T02:21:48.567Z,0.00
2018-06-21T02:22:48.504Z,0.00
2018-06-21T02:23:48.436Z,0.00
2018-06-21T02:24:48.397Z,0.00
2018-06-21T02:25:48.319Z,0.00
2018-06-21T02:26:48.254Z,0.00
2018-06-21T02:27:48.195Z,0.00
2018-06-21T02:28:48.123Z,0.00
2018-06-21T02:29:48.064Z,0.00
2018-06-21T02:30:48.004Z,0.00
2018-06-21T02:31:47.955Z,0.00
2018-06-21T02:32:47.927Z,0.00
2018-06-21T02:33:47.834Z,0.00
2018-06-21T02:34:47.775Z,0.00
2018-06-21T02:35:47.702Z,0.00
2018-06-21T02:36:47.641Z,0.00
2018-06-21T02:37:47.589Z,0.00
2018-06-21T02:38:47.528Z,0.00
2018-06-21T02:39:47.455Z,0.00
2018-06-21T02:40:47.390Z,0.00
2018-06-21T02:41:47.340Z,0.00
2018-06-21T02:42:47.288Z,0.00
2018-06-21T02:43:47.218Z,0.00
2018-06-21T02:44:47.143Z,0.00
2018-06-21T02:45:47.093Z,0.00
2018-06-21T02:46:47.079Z,0.00
2018-06-21T02:47:46.956Z,0.00
2018-06-21T02:48:46.905Z,0.00
2018-06-21T02:49:46.844Z,0.00
2018-06-21T02:50:46.785Z,0.00
2018-06-21T02:51:46.722Z,0.00
2018-06-21T02:52:46.653Z,0.00
2018-06-21T02:53:46.615Z,0.00
2018-06-21T02:54:46.542Z,0.00
2018-06-21T02:55:46.481Z,0.00
2018-06-21T02:56:46.411Z,0.00
2018-06-21T02:57:46.358Z,0.00
2018-06-21T02:58:46.282Z,0.00
2018-06-21T02:59:46.214Z,0.00
2018-06-21T03:00:46.167Z,0.00
2018-06-21T03:01:46.103Z,0.00
2018-06-21T03:02:46.043Z,0.00
2018-06-21T03:03:45.981Z,0.00
2018-06-21T03:04:45.926Z,0.00
2018-06-21T03:05:45.850Z,0.00
2018-06-21T03:06:45.801Z,0.00
2018-06-21T03:07:45.728Z,0.00
2018-06-21T03:08:45.678Z,0.00
2018-06-21T03:09:45.617Z,0.00
2018-06-21T03:10:45.552Z,0.00
2018-06-21T03:11:45.492Z,0.00
2018-06-21T03:12:45.434Z,0.00
2018-06-21T03:13:45.373Z,0.00
2018-06-21T03:14:45.306Z,0.00
2018-06-21T03:15:45.250Z,0.00
2018-06-21T03:16:45.188Z,0.00
2018-06-21T03:17:45.118Z,0.00
2018-06-21T03:18:45.049Z,0.00
2018-06-21T03:19:44.993Z,0.00
2018-06-21T03:20:44.934Z,0.00
2018-06-21T03:21:44.872Z,0.00
2018-06-21T03:22:44.817Z,0.00
2018-06-21T03:23:44.754Z,0.00
2018-06-21T03:24:44.680Z,0.00
2018-06-21T03:25:44.635Z,0.00
2018-06-21T03:26:44.577Z,0.00
2018-06-21T03:27:44.502Z,0.00
2018-06-21T03:28:44.446Z,0.00
2018-06-21T03:29:44.383Z,0.00
2018-06-21T03:30:44.306Z,0.00
2018-06-21T03:31:44.284Z,0.00
2018-06-21T03:32:44.199Z,0.00
2018-06-21T03:33:44.140Z,0.00
2018-06-21T03:34:44.068Z,0.00
2018-06-21T03:35:44.026Z,0.00
2018-06-21T03:36:43.942Z,0.00
2018-06-21T03:37:43.879Z,0.00
2018-06-21T03:38:43.824Z,0.00
2018-06-21T03:39:43.754Z,0.00
2018-06-21T03:40:43.691Z,0.00
2018-06-21T03:41:43.627Z,0.00
2018-06-21T03:42:43.616Z,0.00
2018-06-21T03:43:43.523Z,0.00
2018-06-21T03:44:43.459Z,0.00
2018-06-21T03:45:43.382Z,0.00
2018-06-21T03:46:43.320Z,0.00
2018-06-21T03:47:43.280Z,0.00
2018-06-21T03:48:43.200Z,0.00
2018-06-21T03:49:43.147Z,0.00
2018-06-21T03:50:43.080Z,0.00
2018-06-21T03:51:43.018Z,0.00
2018-06-21T03:52:42.947Z,0.00
2018-06-21T03:53:42.883Z,0.00
2018-06-21T03:54:42.816Z,0.00
2018-06-21T03:55:42.780Z,0.00
2018-06-21T03:56:42.709Z,0.00
2018-06-21T03:57:42.648Z,0.00
2018-06-21T03:58:42.582Z,0.00
2018-06-21T03:59:42.539Z,0.00
2018-06-21T04:00:42.491Z,0.00
2018-06-21T04:01:42.385Z,0.00
2018-06-21T04:02:42.330Z,0.00
2018-06-21T04:03:42.271Z,0.00
2018-06-21T04:04:42.218Z,0.00
2018-06-21T04:05:42.155Z,0.00
2018-06-21T04:06:42.093Z,0.00
2018-06-21T04:07:42.029Z,0.00
2018-06-21T04:08:41.965Z,0.00
2018-06-21T04:09:41.896Z,0.00
2018-06-21T04:10:41.830Z,0.00
2018-06-21T04:11:41.782Z,0.00
2018-06-21T04:12:41.722Z,0.00
2018-06-21T04:13:41.660Z,0.00
2018-06-21T04:14:41.581Z,0.00
2018-06-21T04:15:41.520Z,0.00
2018-06-21T04:16:41.468Z,0.00
2018-06-21T04:17:41.401Z,0.00
2018-06-21T04:18:41.343Z,0.00
2018-06-21T04:19:41.291Z,0.00
2018-06-21T04:20:41.215Z,0.00
2018-06-21T04:21:41.148Z,0.00
2018-06-21T04:22:41.093Z,0.00
2018-06-21T04:23:41.032Z,0.00
2018-06-21T04:24:40.976Z,0.00
2018-06-21T04:25:40.910Z,0.00
2018-06-21T04:26:40.850Z,0.00
2018-06-21T04:27:40.768Z,0.00
2018-06-21T04:28:40.726Z,0.00
2018-06-21T04:29:40.667Z,0.00
2018-06-21T04:30:40.593Z,0.00
2018-06-21T04:31:40.526Z,0.00
2018-06-21T04:32:40.460Z,0.00
2018-06-21T04:33:40.408Z,5.63
2018-06-21T04:34:40.345Z,5.63
2018-06-21T04:35:40.277Z,5.63
2018-06-21T04:36:40.205Z,5.63
2018-06-21T04:37:40.145Z,5.63
2018-06-21T04:38:40.091Z,5.63
2018-06-21T04:39:40.054Z,5.63
2018-06-21T04:40:39.974Z,5.63
2018-06-21T04:41:39.898Z,5.63
2018-06-21T04:42:39.830Z,5.63
2018-06-21T04:43:39.775Z,5.63
2018-06-21T04:44:39.715Z,11.25
2018-06-21T04:45:39.663Z,11.25
2018-06-21T04:46:39.591Z,11.25
2018-06-21T04:47:39.530Z,11.25
2018-06-21T04:48:39.474Z,11.25
2018-06-21T04:49:39.399Z,11.25
2018-06-21T04:50:39.345Z,11.25
2018-06-21T04:51:39.278Z,11.25
2018-06-21T04:52:39.236Z,11.25
2018-06-21T04:53:39.162Z,16.88
2018-06-21T04:54:39.103Z,16.88
2018-06-21T04:55:39.031Z,16.88
2018-06-21T04:56:38.969Z,16.88
2018-06-21T04:57:38.905Z,16.88
2018-06-21T04:58:38.843Z,22.50
2018-06-21T04:59:38.782Z,22.50
2018-06-21T05:00:38.728Z,22.50
2018-06-21T05:01:38.661Z,22.50
2018-06-21T05:02:38.598Z,28.13
2018-06-21T05:03:38.536Z,28.13
2018-06-21T05:04:38.462Z,28.13
2018-06-21T05:05:38.452Z,28.13
2018-06-21T05:06:38.347Z,33.75
2018-06-21T05:07:38.275Z,33.75
2018-06-21T05:08:38.216Z,33.75
2018-06-21T05:09:38.160Z,33.75
2018-06-21T05:10:38.097Z,39.38
2018-06-21T05:11:38.028Z,39.38
2018-06-21T05:12:37.974Z,39.38
2018-06-21T05:13:37.900Z,39.38
2018-06-21T05:14:37.845Z,45.00
2018-06-21T05:15:37.773Z,45.00
2018-06-21T05:16:37.731Z,45.00
2018-06-21T05:17:37.662Z,50.63
2018-06-21T05:18:37.585Z,50.63
2018-06-21T05:19:37.536Z,50.63
2018-06-21T05:20:37.467Z,50.63
2018-06-21T05:21:37.414Z,56.25
2018-06-21T05:22:37.331Z,56.25
2018-06-21T05:23:37.274Z,56.25
2018-06-21T05:24:37.214Z,56.25
2018-06-21T05:25:37.170Z,56.25
2018-06-21T05:26:37.090Z,56.25
2018-06-21T05:27:37.034Z,56.25
2018-06-21T05:28:36.961Z,61.88
2018-06-21T05:29:36.914Z,61.88
2018-06-21T05:30:36.849Z,61.88
2018-06-21T05:31:36.777Z,67.50
2018-06-21T05:32:36.719Z,67.50
2018-06-21T05:33:36.662Z,67.50
2018-06-21T05:34:36.598Z,73.13
2018-06-21T05:35:36.546Z,73.13
2018-06-21T05:36:36.463Z,78.75
2018-06-21T05:37:36.413Z,78.75
2018-06-21T05:38:36.340Z,78.75
2018-06-21T05:39:36.288Z,84.38
2018-06-21T05:40:36.223Z,84.38
2018-06-21T05:41:36.163Z,84.38
2018-06-21T05:42:36.088Z,90.00
2018-06-21T05:43:36.029Z,90.00
2018-06-21T05:44:35.966Z,95.63
2018-06-21T05:45:35.902Z,95.63
2018-06-21T05:46:35.857Z,101.25
2018-06-21T05:47:35.784Z,101.25
2018-06-21T05:48:35.730Z,101.25
2018-06-21T05:49:35.661Z,101.25
2018-06-21T05:50:35.603Z,101.25
2018-06-21T05:51:35.527Z,106.88
2018-06-21T05:52:35.470Z,106.88
2018-06-21T05:53:35.419Z,112.50
2018-06-21T05:54:35.346Z,112.50
2018-06-21T05:55:35.289Z,112.50
2018-06-21T05:56:35.251Z,118.13
2018-06-21T05:57:35.163Z,118.13
2018-06-21T05:58:35.099Z,118.13
2018-06-21T05:59:35.041Z,118.13
2018-06-21T06:00:34.976Z,123.75
2018-06-21T06:01:34.979Z,123.75
2018-06-21T06:02:34.860Z,135.00
2018-06-21T06:03:34.807Z,129.38
2018-06-21T06:04:34.727Z,129.38
2018-06-21T06:05:34.669Z,135.00
2018-06-21T06:06:34.615Z,135.00
2018-06-21T06:07:34.555Z,135.00
2018-06-21T06:08:34.546Z,135.00
2018-06-21T06:09:34.420Z,140.63
2018-06-21T06:10:34.401Z,140.63
2018-06-21T06:11:34.309Z,140.63
2018-06-21T06:12:34.248Z,140.63
2018-06-21T06:13:34.183Z,146.25
2018-06-21T06:14:34.141Z,146.25
2018-06-21T06:15:34.052Z,146.25
2018-06-21T06:16:34.004Z,146.25
2018-06-21T06:17:33.949Z,151.88
2018-06-21T06:18:33.868Z,151.88
2018-06-21T06:19:33.815Z,151.88
2018-06-21T06:20:33.753Z,151.88
2018-06-21T06:21:33.704Z,151.88
2018-06-21T06:22:33.634Z,157.50
2018-06-21T06:23:33.566Z,157.50
2018-06-21T06:24:33.521Z,157.50
2018-06-21T06:25:33.447Z,157.50
2018-06-21T06:26:33.394Z,157.50
2018-06-21T06:27:33.362Z,157.50
2018-06-21T06:28:33.339Z,163.13
2018-06-21T06:29:33.213Z,163.13
2018-06-21T06:30:33.157Z,163.13
2018-06-21T06:31:33.087Z,163.13
2018-06-21T06:32:33.043Z,163.13
2018-06-21T06:33:32.966Z,163.13
2018-06-21T06:34:32.904Z,168.75
2018-06-21T06:35:32.836Z,168.75
2018-06-21T06:36:32.793Z,168.75
2018-06-21T06:37:32.714Z,174.38
2018-06-21T06:38:32.665Z,174.38
2018-06-21T06:39:32.606Z,174.38
2018-06-21T06:40:32.684Z,180.00
2018-06-21T06:41:32.498Z,180.00
2018-06-21T06:42:32.428Z,185.63
2018-06-21T06:43:32.369Z,191.25
2018-06-21T06:44:32.301Z,191.25
2018-06-21T06:45:32.317Z,191.25
2018-06-21T06:46:32.181Z,191.25
2018-06-21T06:47:32.129Z,185.63
2018-06-21T06:48:32.065Z,185.63
2018-06-21T06:49:31.995Z,185.63
2018-06-21T06:50:31.941Z,191.25
2018-06-21T06:51:31.877Z,191.25
2018-06-21T06:52:31.825Z,191.25
2018-06-21T06:53:31.774Z,191.25
2018-06-21T06:54:31.763Z,196.88
2018-06-21T06:55:31.644Z,191.25
2018-06-21T06:56:31.595Z,191.25
2018-06-21T06:57:31.514Z,191.25
2018-06-21T06:58:31.462Z,191.25
2018-06-21T06:59:31.405Z,191.25
2018-06-21T07:00:31.343Z,196.88
2018-06-21T07:01:31.286Z,196.88
2018-06-21T07:02:31.229Z,196.88
2018-06-21T07:03:31.158Z,202.50
2018-06-21T07:04:31.109Z,196.88
2018-06-21T07:05:31.053Z,202.50
2018-06-21T07:06:30.997Z,202.50
2018-06-21T07:07:30.928Z,202.50
2018-06-21T07:08:30.898Z,202.50
2018-06-21T07:09:30.812Z,202.50
2018-06-21T07:10:30.747Z,202.50
2018-06-21T07:11:30.683Z,202.50
2018-06-21T07:12:30.643Z,202.50
2018-06-21T07:13:30.575Z,202.50
2018-06-21T07:14:30.562Z,208.13
2018-06-21T07:15:30.446Z,208.13
2018-06-21T07:16:30.397Z,208.13
2018-06-21T07:17:30.339Z,208.13
2018-06-21T07:18:30.265Z,208.13
2018-06-21T07:19:30.213Z,208.13
2018-06-21T07:20:30.158Z,208.13
2018-06-21T07:21:30.104Z,208.13
2018-06-21T07:22:30.033Z,208.13
2018-06-21T07:23:29.981Z,208.13
2018-06-21T07:24:29.922Z,213.75
2018-06-21T07:25:29.873Z,213.75
2018-06-21T07:26:29.795Z,213.75
2018-06-21T07:27:29.743Z,213.75
2018-06-21T07:28:29.740Z,213.75
2018-06-21T07:29:29.630Z,219.38
2018-06-21T07:30:29.554Z,219.38
2018-06-21T07:31:29.533Z,219.38
2018-06-21T07:32:29.446Z,219.38
2018-06-21T07:33:29.399Z,219.38
2018-06-21T07:34:29.331Z,219.38
2018-06-21T07:35:29.265Z,213.75
2018-06-21T07:36:29.220Z,219.38
2018-06-21T07:37:29.161Z,219.38
2018-06-21T07:38:29.105Z,219.38
2018-06-21T07:39:29.034Z,225.00
2018-06-21T07:40:28.974Z,219.38
2018-06-21T07:41:28.916Z,219.38
2018-06-21T07:42:28.853Z,219.38
2018-06-21T07:43:28.805Z,219.38
2018-06-21T07:44:28.747Z,225.00
2018-06-21T07:45:28.679Z,219.38
2018-06-21T07:46:28.616Z,219.38
2018-06-21T07:47:28.554Z,219.38
2018-06-21T07:48:28.515Z,225.00
2018-06-21T07:49:28.451Z,225.00
2018-06-21T07:50:28.376Z,225.00
2018-06-21T07:51:28.335Z,225.00
2018-06-21T07:52:28.273Z,225.00
2018-06-21T07:53:28.209Z,225.00
2018-06-21T07:54:28.141Z,225.00
2018-06-21T07:55:28.094Z,225.00
2018-06-21T07:56:28.040Z,225.00
2018-06-21T07:57:27.974Z,225.00
2018-06-21T07:58:27.918Z,225.00
2018-06-21T07:59:27.855Z,225.00
2018-06-21T08:00:27.789Z,225.00
2018-06-21T08:01:27.745Z,225.00
2018-06-21T08:02:27.685Z,225.00
2018-06-21T08:03:27.628Z,225.00
2018-06-21T08:04:27.573Z,225.00
2018-06-21T08:05:27.501Z,225.00
2018-06-21T08:06:27.462Z,225.00
2018-06-21T08:07:27.393Z,225.00
2018-06-21T08:08:27.329Z,230.63
2018-06-21T08:09:27.278Z,230.63
2018-06-21T08:10:27.223Z,230.63
2018-06-21T08:11:27.144Z,230.63
2018-06-21T08:12:27.104Z,230.63
2018-06-21T08:13:27.032Z,230.63
2018-06-21T08:14:26.995Z,230.63
2018-06-21T08:15:26.913Z,230.63
2018-06-21T08:16:26.875Z,230.63
2018-06-21T08:17:26.800Z,230.63
2018-06-21T08:18:26.740Z,230.63
2018-06-21T08:19:26.681Z,230.63
2018-06-21T08:20:26.641Z,230.63
2018-06-21T08:21:26.576Z,230.63
2018-06-21T08:22:26.520Z,180.00
2018-06-21T08:23:26.448Z,213.75
2018-06-21T08:24:26.396Z,230.63
2018-06-21T08:25:26.352Z,230.63
2018-06-21T08:26:26.291Z,236.25
2018-06-21T08:27:26.240Z,241.88
2018-06-21T08:28:26.155Z,236.25
2018-06-21T08:29:26.111Z,236.25
2018-06-21T08:30:26.077Z,236.25
2018-06-21T08:31:25.985Z,241.88
2018-06-21T08:32:25.938Z,236.25
2018-06-21T08:33:25.883Z,236.25
2018-06-21T08:34:25.808Z,241.88
2018-06-21T08:35:25.762Z,241.88
2018-06-21T08:36:25.707Z,241.88
2018-06-21T08:37:25.640Z,247.50
2018-06-21T08:38:25.578Z,247.50
2018-06-21T08:39:25.522Z,241.88
2018-06-21T08:40:25.505Z,208.13
2018-06-21T08:41:25.425Z,213.75
2018-06-21T08:42:25.361Z,241.88
2018-06-21T08:43:25.287Z,258.75
2018-06-21T08:44:25.241Z,253.13
2018-06-21T08:45:25.190Z,253.13
2018-06-21T08:46:25.141Z,230.63
2018-06-21T08:47:25.084Z,225.00
2018-06-21T08:48:25.002Z,202.50
2018-06-21T08:49:24.943Z,191.25
2018-06-21T08:50:24.903Z,191.25
2018-06-21T08:51:24.837Z,202.50
2018-06-21T08:52:24.772Z,208.13
2018-06-21T08:53:24.710Z,230.63
2018-06-21T08:54:24.662Z,264.38
2018-06-21T08:55:24.598Z,219.38
2018-06-21T08:56:24.548Z,202.50
2018-06-21T08:57:24.483Z,202.50
2018-06-21T08:58:24.443Z,208.13
2018-06-21T08:59:24.364Z,185.63
2018-06-21T09:00:24.320Z,185.63
2018-06-21T09:01:24.250Z,264.38
2018-06-21T09:02:24.205Z,219.38
2018-06-21T09:03:24.135Z,264.38
2018-06-21T09:04:24.097Z,241.88
2018-06-21T09:05:24.020Z,275.63
2018-06-21T09:06:23.961Z,253.13
2018-06-21T09:07:23.906Z,281.25
2018-06-21T09:08:23.863Z,281.25
2018-06-21T09:09:23.793Z,270.00
2018-06-21T09:10:23.737Z,275.63
2018-06-21T09:11:23.695Z,185.63
2018-06-21T09:12:23.631Z,185.63
2018-06-21T09:13:23.564Z,225.00
2018-06-21T09:14:23.520Z,168.75
2018-06-21T09:15:23.534Z,168.75
2018-06-21T09:16:23.403Z,157.50
2018-06-21T09:17:23.336Z,168.75
2018-06-21T09:18:23.285Z,174.38
2018-06-21T09:19:23.235Z,202.50
2018-06-21T09:20:23.161Z,174.38
2018-06-21T09:21:23.120Z,208.13
2018-06-21T09:22:23.059Z,219.38
2018-06-21T09:23:23.005Z,247.50
2018-06-21T09:24:22.944Z,191.25
2018-06-21T09:25:22.874Z,253.13
2018-06-21T09:26:22.817Z,225.00
2018-06-21T09:27:22.757Z,196.88
2018-06-21T09:28:22.724Z,247.50
2018-06-21T09:29:22.646Z,247.50
2018-06-21T09:30:22.598Z,174.38
2018-06-21T09:31:22.547Z,241.88
2018-06-21T09:32:22.487Z,225.00
2018-06-21T09:33:22.525Z,219.38
2018-06-21T09:34:22.382Z,202.50
2018-06-21T09:35:22.313Z,219.38
2018-06-21T09:36:22.268Z,219.38
2018-06-21T09:37:22.196Z,213.75
2018-06-21T09:38:22.130Z,213.75
2018-06-21T09:39:22.078Z,208.13
2018-06-21T09:40:22.018Z,208.13
2018-06-21T09:41:21.966Z,208.13
2018-06-21T09:42:21.906Z,208.13
2018-06-21T09:43:21.863Z,208.13
2018-06-21T09:44:21.805Z,208.13
2018-06-21T09:45:21.736Z,208.13
2018-06-21T09:46:21.691Z,208.13
2018-06-21T09:47:21.621Z,208.13
2018-06-21T09:48:21.561Z,208.13
2018-06-21T09:49:21.508Z,208.13
2018-06-21T09:50:21.446Z,208.13
2018-06-21T09:51:21.394Z,202.50
2018-06-21T09:52:21.332Z,202.50
2018-06-21T09:53:21.293Z,202.50
2018-06-21T09:54:21.242Z,202.50
2018-06-21T09:55:21.162Z,202.50
2018-06-21T09:56:21.110Z,202.50
2018-06-21T09:57:21.044Z,202.50
2018-06-21T09:58:21.017Z,202.50
2018-06-21T09:59:20.940Z,202.50
2018-06-21T10:00:20.897Z,202.50
2018-06-21T10:01:20.818Z,202.50
2018-06-21T10:02:20.787Z,202.50
2018-06-21T10:03:20.706Z,202.50
2018-06-21T10:04:20.669Z,202.50
2018-06-21T10:05:20.611Z,202.50
2018-06-21T10:06:20.552Z,208.13
2018-06-21T10:07:20.494Z,202.50
2018-06-21T10:08:20.440Z,202.50
2018-06-21T10:09:20.372Z,208.13
2018-06-21T10:10:20.370Z,202.50
2018-06-21T10:11:20.268Z,202.50
2018-06-21T10:12:20.205Z,196.88
2018-06-21T10:13:20.184Z,196.88
2018-06-21T10:14:20.128Z,196.88
2018-06-21T10:15:20.052Z,196.88
2018-06-21T10:16:19.987Z,196.88
2018-06-21T10:17:19.930Z,196.88
2018-06-21T10:18:19.868Z,196.88
2018-06-21T10:19:19.813Z,196.88
2018-06-21T10:20:19.767Z,196.88
2018-06-21T10:21:19.693Z,196.88
2018-06-21T10:22:19.664Z,196.88
2018-06-21T10:23:19.580Z,196.88
2018-06-21T10:24:19.529Z,196.88
2018-06-21T10:25:19.474Z,191.25
2018-06-21T10:26:19.425Z,191.25
2018-06-21T10:27:19.346Z,191.25
2018-06-21T10:28:19.309Z,191.25
2018-06-21T10:29:19.253Z,191.25
2018-06-21T10:30:19.199Z,191.25
2018-06-21T10:31:19.133Z,191.25
2018-06-21T10:32:19.078Z,191.25
2018-06-21T10:33:19.021Z,191.25
2018-06-21T10:34:18.988Z,191.25
2018-06-21T10:35:18.906Z,185.63
2018-06-21T10:36:18.857Z,185.63
2018-06-21T10:37:18.812Z,185.63
2018-06-21T10:38:18.730Z,185.63
2018-06-21T10:39:18.677Z,185.63
2018-06-21T10:40:18.621Z,185.63
2018-06-21T10:41:18.559Z,180.00
2018-06-21T10:42:18.517Z,180.00
2018-06-21T10:43:18.453Z,180.00
2018-06-21T10:44:18.402Z,180.00
2018-06-21T10:45:18.345Z,180.00
2018-06-21T10:46:18.284Z,180.00
2018-06-21T10:47:18.224Z,180.00
2018-06-21T10:48:18.180Z,180.00
2018-06-21T10:49:18.144Z,174.38
2018-06-21T10:50:18.065Z,174.38
2018-06-21T10:51:18.005Z,174.38
2018-06-21T10:52:17.950Z,174.38
2018-06-21T10:53:17.897Z,174.38
2018-06-21T10:54:17.840Z,174.38
2018-06-21T10:55:17.781Z,174.38
2018-06-21T10:56:17.729Z,174.38
2018-06-21T10:57:17.668Z,168.75
2018-06-21T10:58:17.604Z,168.75
2018-06-21T10:59:17.548Z,168.75
2018-06-21T11:00:17.507Z,168.75
2018-06-21T11:01:17.438Z,168.75
2018-06-21T11:02:17.381Z,168.75
2018-06-21T11:03:17.412Z,168.75
2018-06-21T11:04:17.283Z,163.13
2018-06-21T11:05:17.231Z,163.13
2018-06-21T11:06:17.173Z,163.13
2018-06-21T11:07:17.096Z,163.13
2018-06-21T11:08:17.042Z,163.13
2018-06-21T11:09:16.985Z,163.13
2018-06-21T11:10:16.941Z,163.13
2018-06-21T11:11:16.875Z,163.13
2018-06-21T11:12:16.831Z,157.50
2018-06-21T11:13:16.777Z,157.50
2018-06-21T11:14:16.704Z,157.50
2018-06-21T11:15:16.648Z,157.50
2018-06-21T11:16:16.606Z,157.50
2018-06-21T11:17:16.535Z,157.50
2018-06-21T11:18:16.496Z,157.50
2018-06-21T11:19:16.424Z,151.88
2018-06-21T11:20:16.389Z,151.88
2018-06-21T11:21:16.328Z,151.88
2018-06-21T11:22:16.263Z,151.88
2018-06-21T11:23:16.199Z,151.88
2018-06-21T11:24:16.139Z,151.88
2018-06-21T11:25:16.103Z,151.88
2018-06-21T11:26:16.049Z,151.88
2018-06-21T11:27:15.990Z,151.88
2018-06-21T11:28:15.920Z,157.50
2018-06-21T11:29:15.859Z,151.88
2018-06-21T11:30:15.808Z,151.88
2018-06-21T11:31:15.750Z,151.88
2018-06-21T11:32:15.706Z,151.88
2018-06-21T11:33:15.633Z,151.88
2018-06-21T11:34:15.591Z,151.88
2018-06-21T11:35:15.533Z,151.88
2018-06-21T11:36:15.474Z,151.88
2018-06-21T11:37:15.418Z,151.88
2018-06-21T11:38:15.406Z,151.88
2018-06-21T11:39:15.299Z,151.88
2018-06-21T11:40:15.257Z,146.25
2018-06-21T11:41:15.200Z,146.25
2018-06-21T11:42:15.142Z,146.25
2018-06-21T11:43:15.082Z,146.25
2018-06-21T11:44:15.014Z,146.25
2018-06-21T11:45:14.988Z,146.25
2018-06-21T11:46:14.904Z,146.25
2018-06-21T11:47:14.863Z,146.25
2018-06-21T11:48:14.793Z,146.25
2018-06-21T11:49:14.736Z,146.25
2018-06-21T11:50:14.678Z,146.25
2018-06-21T11:51:14.619Z,146.25
2018-06-21T11:52:14.584Z,146.25
2018-06-21T11:53:14.508Z,140.63
2018-06-21T11:54:14.453Z,140.63
2018-06-21T11:55:14.411Z,140.63
2018-06-21T11:56:14.344Z,140.63
2018-06-21T11:57:14.305Z,140.63
2018-06-21T11:58:14.228Z,140.63
2018-06-21T11:59:14.185Z,140.63
2018-06-21T12:00:14.138Z,140.63
2018-06-21T12:01:14.080Z,140.63
2018-06-21T12:02:14.020Z,140.63
2018-06-21T12:03:13.958Z,140.63
2018-06-21T12:04:13.914Z,140.63
2018-06-21T12:05:13.851Z,140.63
2018-06-21T12:06:13.782Z,140.63
2018-06-21T12:07:13.718Z,135.00
2018-06-21T12:08:13.667Z,135.00
2018-06-21T12:09:13.621Z,135.00
2018-06-21T12:10:13.559Z,135.00
2018-06-21T12:11:13.516Z,135.00
2018-06-21T12:12:13.443Z,135.00
2018-06-21T12:13:13.401Z,135.00
2018-06-21T12:14:13.407Z,135.00
2018-06-21T12:15:13.295Z,135.00
2018-06-21T12:16:13.235Z,135.00
2018-06-21T12:17:13.172Z,135.00
2018-06-21T12:18:13.125Z,135.00
2018-06-21T12:19:13.046Z,135.00
2018-06-21T12:20:12.996Z,135.00
2018-06-21T12:21:12.957Z,135.00
2018-06-21T12:22:12.920Z,129.38
2018-06-21T12:23:12.824Z,129.38
2018-06-21T12:24:12.767Z,129.38
2018-06-21T12:25:12.725Z,129.38
2018-06-21T12:26:12.782Z,129.38
2018-06-21T12:27:12.600Z,129.38
2018-06-21T12:28:12.542Z,129.38
2018-06-21T12:29:12.486Z,129.38
2018-06-21T12:30:12.426Z,129.38
2018-06-21T12:31:12.383Z,129.38
2018-06-21T12:32:12.324Z,129.38
2018-06-21T12:33:12.272Z,135.00
2018-06-21T12:34:12.202Z,129.38
2018-06-21T12:35:12.171Z,129.38
2018-06-21T12:36:12.107Z,129.38
2018-06-21T12:37:12.053Z,129.38
2018-06-21T12:38:11.978Z,129.38
2018-06-21T12:39:11.937Z,129.38
2018-06-21T12:40:11.862Z,129.38
2018-06-21T12:41:11.826Z,129.38
2018-06-21T12:42:11.768Z,129.38
2018-06-21T12:43:11.711Z,129.38
2018-06-21T12:44:11.635Z,129.38
2018-06-21T12:45:11.582Z,129.38
2018-06-21T12:46:11.559Z,129.38
2018-06-21T12:47:11.487Z,129.38
2018-06-21T12:48:11.418Z,123.75